Time;durP1;ratioP1;P1;durP2;ratioP2;P2;SDS_P1;SDS_P2;PMS_P1;PMS_P2;Temp;Humidity;BMP_temperature;BMP_pressure;BME280_temperature;BME280_humidity;BME280_pressure;Samples;Min_cycle;Max_cycle;Signal;HPM_P1;HPM_P2
2022/08/31 00:04:24;;;;;;;5.22;2.70;;;;;;;24.94;37.22;100665.28;4113259;28;20034;-63
2022/08/31 00:06:29;;;;;;;;;;;;;;;24.77;37.44;100668.63;4128151;28;20042;-64
2022/08/31 00:08:33;;;;;;;4.70;2.95;;;;;;;24.90;37.19;100669.00;4115212;28;19969;-63
2022/08/31 00:10:39;;;;;;;4.40;2.58;;;;;;;24.84;37.62;100672.78;4112862;28;20034;-63
2022/08/31 00:12:47;;;;;;;4.65;2.20;;;;;;;24.77;37.89;100679.28;4112532;28;20043;-63
2022/08/31 00:14:50;;;;;;;8.30;2.70;;;;;;;24.73;37.92;100686.50;4113000;28;20513;-64
2022/08/31 00:16:53;;;;;;;4.00;2.28;;;;;;;24.69;38.39;100697.31;4114414;28;20317;-63
2022/08/31 00:18:56;;;;;;;6.35;2.55;;;;;;;24.62;38.43;100704.69;4113059;28;20070;-66
2022/08/31 00:21:01;;;;;;;6.80;3.03;;;;;;;24.63;38.62;100711.72;4113380;28;20134;-63
2022/08/31 00:23:07;;;;;;;8.65;2.80;;;;;;;24.55;38.94;100708.50;4113853;28;20047;-63
2022/08/31 00:25:11;;;;;;;4.40;2.53;;;;;;;24.56;38.99;100711.09;4117087;28;20047;-63
2022/08/31 00:27:15;;;;;;;7.22;3.05;;;;;;;24.67;38.74;100705.38;4115856;28;20066;-63
2022/08/31 00:29:18;;;;;;;4.38;3.03;;;;;;;24.55;38.88;100711.16;4132233;28;20030;-63
2022/08/31 00:31:20;;;;;;;5.22;2.63;;;;;;;24.40;38.99;100713.50;4118026;28;20035;-63
2022/08/31 00:33:24;;;;;;;4.10;2.55;;;;;;;24.39;39.07;100708.25;4115726;28;20133;-63
2022/08/31 00:35:28;;;;;;;5.33;2.80;;;;;;;24.45;38.89;100709.78;4115119;28;20065;-63
2022/08/31 00:37:31;;;;;;;7.53;3.25;;;;;;;24.45;38.89;100701.81;4115040;28;20535;-63
2022/08/31 00:39:35;;;;;;;8.20;3.13;;;;;;;24.44;38.90;100700.94;4116203;28;20039;-63
2022/08/31 00:41:38;;;;;;;5.28;3.13;;;;;;;24.43;39.11;100701.00;4116281;28;20027;-63
2022/08/31 00:43:46;;;;;;;5.50;3.33;;;;;;;24.53;39.06;100702.38;4117164;28;20047;-63
2022/08/31 00:45:49;;;;;;;5.53;2.90;;;;;;;24.43;39.09;100707.19;4115669;28;20042;-64
2022/08/31 00:47:53;;;;;;;5.50;2.42;;;;;;;24.39;39.19;100700.28;4114339;28;20039;-63
2022/08/31 00:49:56;;;;;;;6.60;2.92;;;;;;;24.34;39.51;100703.13;4116442;28;20405;-63
2022/08/31 00:52:03;;;;;;;4.35;3.10;;;;;;;24.20;39.60;100700.13;4115760;28;20519;-63
2022/08/31 00:54:08;;;;;;;4.35;2.72;;;;;;;24.17;39.79;100698.44;4099662;29;20126;-63
2022/08/31 00:56:12;;;;;;;4.57;2.95;;;;;;;24.29;39.85;100698.91;4116988;28;20038;-63
2022/08/31 00:58:15;;;;;;;4.70;2.55;;;;;;;24.37;39.65;100694.13;4116673;28;20134;-63
2022/08/31 01:00:21;;;;;;;4.47;2.47;;;;;;;24.30;39.82;100696.19;4116836;28;20039;-64
2022/08/31 01:02:23;;;;;;;7.18;2.58;;;;;;;24.32;39.77;100704.09;4115105;28;20086;-64
2022/08/31 01:04:27;;;;;;;7.15;3.35;;;;;;;24.36;39.89;100695.09;4095432;29;20047;-64
2022/08/31 01:06:30;;;;;;;5.20;2.97;;;;;;;24.29;40.19;100698.91;4111654;28;20089;-64
2022/08/31 01:08:33;;;;;;;5.15;2.75;;;;;;;24.32;40.09;100699.63;4116213;28;20440;-63
2022/08/31 01:10:39;;;;;;;5.20;2.70;;;;;;;24.25;40.15;100700.78;4115478;28;20049;-63
2022/08/31 01:12:45;;;;;;;5.30;2.60;;;;;;;24.25;40.58;100702.59;4116615;28;20496;-63
2022/08/31 01:14:48;;;;;;;5.75;3.15;;;;;;;24.23;40.66;100705.31;4098614;29;20493;-64
2022/08/31 01:16:54;;;;;;;7.63;3.60;;;;;;;24.22;41.04;100708.88;4115539;28;20069;-63
2022/08/31 01:19:01;;;;;;;4.25;2.70;;;;;;;24.03;42.00;100709.63;4114701;28;20377;-63
2022/08/31 01:21:16;;;;;;;4.75;3.05;;;;;;;24.03;42.34;100714.03;4117438;28;20090;-63
2022/08/31 01:23:24;;;;;;;8.32;3.72;;;;;;;23.91;42.79;100715.38;4116243;28;20396;-63
2022/08/31 01:25:27;;;;;;;5.05;3.08;;;;;;;23.94;43.07;100715.25;4116477;28;20046;-63
2022/08/31 01:27:36;;;;;;;4.72;3.22;;;;;;;23.81;45.73;100720.13;4114591;28;20077;-63
2022/08/31 01:29:39;;;;;;;6.05;3.25;;;;;;;23.78;45.91;100724.69;4115487;28;20042;-64
2022/08/31 01:31:45;;;;;;;3.97;2.85;;;;;;;23.61;46.90;100723.53;4115571;28;20064;-64
2022/08/31 01:33:48;;;;;;;6.15;3.80;;;;;;;23.61;47.76;100712.91;4114899;28;20090;-64
2022/08/31 01:35:51;;;;;;;3.67;2.95;;;;;;;23.62;47.67;100719.94;4126431;28;20050;-63
2022/08/31 01:37:54;;;;;;;4.15;3.05;;;;;;;23.64;47.98;100728.72;4115164;28;20390;-64
2022/08/31 01:39:59;;;;;;;5.95;3.28;;;;;;;23.62;48.48;100727.03;4115071;28;20138;-63
2022/08/31 01:42:02;;;;;;;;;;;;;;;23.34;49.60;100731.50;4116474;28;20067;-64
2022/08/31 01:44:05;;;;;;;5.40;3.47;;;;;;;23.28;49.92;100729.06;4130766;28;19921;-63
2022/08/31 01:46:11;;;;;;;3.88;2.85;;;;;;;23.33;49.31;100720.97;4129860;28;20408;-64
2022/08/31 01:48:16;;;;;;;6.00;3.97;;;;;;;23.43;49.92;100724.16;4115852;28;20049;-64
2022/08/31 01:50:20;;;;;;;6.93;3.53;;;;;;;23.50;49.98;100709.75;4131080;28;20518;-63
2022/08/31 01:52:25;;;;;;;3.92;3.53;;;;;;;23.49;50.21;100723.94;4116161;28;20039;-63
2022/08/31 01:54:30;;;;;;;4.13;3.25;;;;;;;23.47;50.38;100715.19;4115947;28;20039;-63
2022/08/31 01:56:37;;;;;;;7.18;3.65;;;;;;;23.26;51.46;100717.66;4099027;29;20036;-63
2022/08/31 01:58:42;;;;;;;6.93;4.13;;;;;;;23.28;51.55;100713.16;4114450;28;20145;-63
2022/08/31 02:01:10;;;;;;;4.55;3.58;;;;;;;23.35;51.39;100719.13;4104814;28;20418;-63
2022/08/31 02:03:33;;;;;;;5.03;3.55;;;;;;;23.27;51.64;100722.03;4099570;29;20457;-63
2022/08/31 02:05:38;;;;;;;4.95;3.38;;;;;;;23.30;52.52;100713.97;4114970;28;20511;-63
2022/08/31 02:07:41;;;;;;;6.82;3.38;;;;;;;22.96;52.55;100725.69;4115859;28;20042;-63
2022/08/31 02:09:44;;;;;;;5.07;3.60;;;;;;;23.07;53.24;100711.22;4130338;28;20080;-63
2022/08/31 02:11:49;;;;;;;5.22;3.47;;;;;;;23.02;53.43;100717.53;4131424;28;20065;-64
2022/08/31 02:13:53;;;;;;;7.85;4.40;;;;;;;23.07;54.06;100719.16;4124364;28;20077;-63
2022/08/31 02:15:57;;;;;;;4.07;3.25;;;;;;;22.98;53.41;100715.03;4114275;28;20039;-63
2022/08/31 02:18:00;;;;;;;7.40;4.35;;;;;;;23.04;54.23;100711.31;4098554;29;20054;-63
2022/08/31 02:20:06;;;;;;;5.97;3.42;;;;;;;22.92;54.54;100715.25;4129983;28;20097;-63
2022/08/31 02:22:09;;;;;;;6.18;3.72;;;;;;;22.83;54.29;100717.28;4115378;28;20085;-63
2022/08/31 02:24:12;;;;;;;4.25;3.17;;;;;;;22.88;54.60;100718.91;4130044;28;20121;-63
2022/08/31 02:26:15;;;;;;;4.85;3.35;;;;;;;22.91;53.79;100719.69;4098705;28;20544;-63
2022/08/31 02:28:22;;;;;;;5.72;3.25;;;;;;;22.96;54.21;100720.38;4130283;28;20030;-63
2022/08/31 02:30:27;;;;;;;5.78;3.90;;;;;;;22.95;55.38;100723.94;4113818;28;20093;-63
2022/08/31 02:32:30;;;;;;;5.07;4.00;;;;;;;23.00;55.53;100716.72;4115325;28;20093;-63
2022/08/31 02:34:32;;;;;;;5.45;3.33;;;;;;;22.92;54.70;100726.69;4113962;28;20122;-63
2022/08/31 02:36:36;;;;;;;4.57;3.42;;;;;;;22.87;55.16;100715.41;4115466;28;20046;-63
2022/08/31 02:38:40;;;;;;;4.75;3.78;;;;;;;22.84;55.98;100715.50;4098309;29;20075;-63
2022/08/31 02:40:44;;;;;;;5.85;3.75;;;;;;;22.76;56.31;100718.38;4130547;28;20046;-63
2022/08/31 02:42:47;;;;;;;10.52;4.15;;;;;;;22.69;56.90;100726.59;4115182;28;20070;-63
2022/08/31 02:44:58;;;;;;;8.63;3.90;;;;;;;22.70;56.18;100723.03;4112117;28;20496;-63
2022/08/31 02:47:01;;;;;;;5.65;3.72;;;;;;;22.84;56.38;100729.63;4111204;28;20045;-63
2022/08/31 02:49:14;;;;;;;4.68;3.42;;;;;;;22.67;56.55;100724.84;4096740;28;20402;-63
2022/08/31 02:51:18;;;;;;;5.65;3.75;;;;;;;22.71;56.91;100725.63;4130938;28;20030;-63
2022/08/31 02:53:23;;;;;;;5.45;4.50;;;;;;;22.79;57.33;100735.97;4113614;28;20034;-63
2022/08/31 02:55:27;;;;;;;;;;;;;;;22.57;56.78;100734.00;4130464;28;20158;-63
2022/08/31 02:57:30;;;;;;;5.93;3.88;;;;;;;22.71;57.37;100741.53;4129815;28;19921;-63
2022/08/31 02:59:32;;;;;;;5.45;4.00;;;;;;;22.75;57.28;100740.53;4111883;28;20124;-63
2022/08/31 03:01:38;;;;;;;6.15;4.00;;;;;;;22.70;57.58;100733.63;4113820;28;20077;-63
2022/08/31 03:03:41;;;;;;;4.45;3.15;;;;;;;22.53;57.07;100735.03;4115766;28;20101;-63
2022/08/31 03:05:48;;;;;;;5.68;4.00;;;;;;;22.54;57.47;100733.25;4114820;28;20074;-63
2022/08/31 03:07:52;;;;;;;4.78;3.20;;;;;;;22.52;57.05;100743.91;4114736;28;20035;-63
2022/08/31 03:09:56;;;;;;;6.60;3.43;;;;;;;22.51;57.34;100747.47;4114183;28;20239;-63
2022/08/31 03:11:59;;;;;;;4.72;3.50;;;;;;;22.56;56.56;100748.19;4097015;28;20381;-63
2022/08/31 03:14:02;;;;;;;5.78;3.88;;;;;;;22.61;57.40;100740.94;4112518;28;20130;-63
2022/08/31 03:16:06;;;;;;;6.43;3.88;;;;;;;22.69;56.81;100742.50;4113178;28;20097;-63
2022/08/31 03:18:10;;;;;;;5.10;3.03;;;;;;;22.66;56.69;100732.84;4114196;28;20051;-63
2022/08/31 03:20:13;;;;;;;4.40;2.95;;;;;;;22.71;56.00;100738.03;4112999;28;20043;-63
2022/08/31 03:22:16;;;;;;;6.45;3.67;;;;;;;22.75;57.01;100734.34;4097701;29;20039;-63
2022/08/31 03:24:22;;;;;;;4.70;4.20;;;;;;;22.86;57.43;100732.22;4125939;28;20042;-63
2022/08/31 03:26:29;;;;;;;4.20;3.17;;;;;;;22.76;56.81;100730.78;4112628;28;20506;-64
2022/08/31 03:28:32;;;;;;;4.53;3.20;;;;;;;22.74;56.75;100729.97;4114600;28;20500;-64
2022/08/31 03:30:55;;;;;;;4.20;3.42;;;;;;;22.73;57.22;100731.75;4096085;28;20067;-63
2022/08/31 03:32:58;;;;;;;6.18;4.93;;;;;;;22.74;57.90;100736.13;4114505;28;20163;-63
2022/08/31 03:35:07;;;;;;;5.95;4.25;;;;;;;22.70;58.06;100734.50;4112621;28;20050;-63
2022/08/31 03:37:12;;;;;;;5.13;3.47;;;;;;;22.61;58.06;100735.66;4097555;29;20043;-63
2022/08/31 03:39:15;;;;;;;4.40;3.53;;;;;;;22.61;56.97;100727.69;4118367;28;20053;-63
2022/08/31 03:41:22;;;;;;;5.60;3.97;;;;;;;22.72;57.29;100724.72;4108743;28;20046;-63
2022/08/31 03:43:25;;;;;;;4.20;3.58;;;;;;;22.85;56.71;100733.13;4125782;28;20042;-63
2022/08/31 03:45:30;;;;;;;5.57;3.67;;;;;;;22.94;56.75;100730.19;4115052;28;20038;-63
2022/08/31 03:47:34;;;;;;;4.88;3.42;;;;;;;22.94;56.97;100727.53;4113069;28;20035;-64
2022/08/31 03:49:45;;;;;;;4.63;4.15;;;;;;;22.92;57.10;100724.06;4115294;28;20039;-63
2022/08/31 03:52:15;;;;;;;5.80;3.72;;;;;;;22.80;57.25;100735.94;4085509;28;20113;-63
2022/08/31 03:54:22;;;;;;;4.22;3.53;;;;;;;22.83;57.38;100733.19;4107390;28;20043;-63
2022/08/31 03:56:25;;;;;;;5.18;3.47;;;;;;;22.83;57.52;100734.97;4114002;28;20035;-62
2022/08/31 03:58:29;;;;;;;5.57;3.85;;;;;;;22.74;57.78;100738.78;4113387;28;20042;-62
2022/08/31 04:00:32;;;;;;;6.40;4.27;;;;;;;22.71;58.06;100733.59;4112749;28;20467;-62
2022/08/31 04:02:39;;;;;;;5.25;3.70;;;;;;;22.72;58.12;100737.97;4128520;28;20293;-63
2022/08/31 04:05:21;;;;;;;4.78;3.78;;;;;;;22.77;57.95;100740.47;4115157;28;20043;-62
2022/08/31 04:07:45;;;;;;;6.30;3.35;;;;;;;22.69;57.81;100737.19;4104081;28;20054;-62
2022/08/31 04:10:23;;;;;;;5.13;3.67;;;;;;;22.76;57.88;100736.94;4105039;28;20053;-62
2022/08/31 04:12:45;;;;;;;7.20;5.03;;;;;;;22.82;57.74;100733.22;4113994;28;20038;-62
2022/08/31 04:15:26;;;;;;;7.53;5.00;;;;;;;22.75;58.15;100729.94;4108969;28;20113;-67
2022/08/31 04:17:54;;;;;;;5.32;4.25;;;;;;;22.54;58.61;100728.81;4100409;28;20059;-65
2022/08/31 04:20:25;;;;;;;5.55;4.30;;;;;;;22.39;59.18;100731.94;4110020;28;20408;-65
2022/08/31 04:22:32;;;;;;;5.68;3.88;;;;;;;22.33;59.13;100740.06;4111318;28;20035;-65
2022/08/31 04:24:55;;;;;;;5.28;4.32;;;;;;;22.34;59.29;100736.50;4114578;28;20416;-65
2022/08/31 04:26:58;;;;;;;6.88;3.97;;;;;;;22.31;59.44;100733.00;4114070;28;20133;-65
2022/08/31 04:29:01;;;;;;;5.30;3.70;;;;;;;22.28;59.27;100730.47;4112713;28;20401;-65
2022/08/31 04:31:07;;;;;;;5.10;4.40;;;;;;;22.22;59.59;100741.22;4112251;28;20550;-65
2022/08/31 04:33:10;;;;;;;7.53;4.43;;;;;;;22.18;59.62;100736.06;4113849;28;20077;-65
2022/08/31 04:35:14;;;;;;;5.82;4.05;;;;;;;22.16;59.80;100738.75;4097812;29;20167;-65
2022/08/31 04:37:17;;;;;;;4.68;3.53;;;;;;;22.00;60.27;100746.28;4130057;28;20133;-65
2022/08/31 04:39:21;;;;;;;4.18;3.45;;;;;;;21.98;60.41;100750.75;4113951;28;20110;-65
2022/08/31 04:41:30;;;;;;;5.80;3.85;;;;;;;22.03;60.20;100747.97;4114134;28;20077;-65
2022/08/31 04:43:33;;;;;;;4.35;3.45;;;;;;;22.05;60.08;100751.44;4128594;28;20085;-65
2022/08/31 04:45:41;;;;;;;4.82;4.00;;;;;;;22.09;59.99;100755.72;4113848;28;20031;-65
2022/08/31 04:47:47;;;;;;;6.05;4.18;;;;;;;22.08;60.16;100762.81;4113964;28;20519;-65
2022/08/31 04:49:50;;;;;;;7.97;3.33;;;;;;;22.09;60.04;100755.72;4108297;28;20115;-65
2022/08/31 04:51:53;;;;;;;4.75;3.72;;;;;;;22.09;60.08;100758.38;4112862;28;20137;-65
2022/08/31 04:53:57;;;;;;;4.22;3.30;;;;;;;22.09;60.09;100764.56;4113435;28;20485;-65
2022/08/31 04:56:13;;;;;;;4.65;3.97;;;;;;;22.07;60.23;100761.06;4112953;28;20058;-65
2022/08/31 04:58:19;;;;;;;4.53;3.53;;;;;;;22.05;60.28;100759.38;4113869;28;20552;-65
2022/08/31 05:00:23;;;;;;;4.75;3.78;;;;;;;22.03;60.38;100758.56;4113927;28;20150;-65
2022/08/31 05:02:52;;;;;;;4.95;3.67;;;;;;;21.97;60.44;100752.53;4113833;28;20134;-65
2022/08/31 05:04:55;;;;;;;7.93;3.53;;;;;;;22.00;60.40;100756.00;4113436;28;20138;-65
2022/08/31 05:06:58;;;;;;;4.40;3.72;;;;;;;21.99;60.33;100752.50;4113749;28;20496;-65
2022/08/31 05:09:04;;;;;;;6.00;3.60;;;;;;;21.99;60.31;100765.75;4113702;28;20050;-65
2022/08/31 05:11:09;;;;;;;3.92;3.53;;;;;;;21.95;60.60;100757.00;4113697;28;20038;-65
2022/08/31 05:13:12;;;;;;;8.20;4.43;;;;;;;21.90;60.67;100758.94;4115455;28;20039;-65
2022/08/31 05:15:17;;;;;;;4.10;3.33;;;;;;;21.93;60.61;100763.25;4132540;28;20575;-65
2022/08/31 05:17:19;;;;;;;;;;;;;;;21.84;60.53;100771.44;4118587;28;20050;-65
2022/08/31 05:19:22;;;;;;;7.93;3.38;;;;;;;21.87;60.79;100779.31;4132874;28;20029;-65
2022/08/31 05:21:27;;;;;;;4.25;3.60;;;;;;;21.90;60.69;100780.09;4115622;28;20074;-65
2022/08/31 05:23:31;;;;;;;7.63;4.30;;;;;;;21.90;60.71;100773.91;4115565;28;20066;-65
2022/08/31 05:25:33;;;;;;;11.50;3.75;;;;;;;21.99;60.75;100780.75;4100301;29;20059;-65
2022/08/31 05:27:38;;;;;;;7.18;4.20;;;;;;;22.06;60.50;100784.94;4132532;28;20127;-65
2022/08/31 05:29:41;;;;;;;6.00;3.80;;;;;;;22.03;60.59;100785.03;4116600;28;20527;-65
2022/08/31 05:32:08;;;;;;;5.20;3.72;;;;;;;22.05;60.59;100785.84;4122831;28;20069;-65
2022/08/31 05:34:16;;;;;;;4.38;3.63;;;;;;;22.06;60.58;100788.47;4130462;28;20399;-65
2022/08/31 05:36:19;;;;;;;4.25;3.40;;;;;;;22.04;60.58;100787.66;4131198;28;20129;-65
2022/08/31 05:38:22;;;;;;;5.20;3.70;;;;;;;22.00;60.77;100791.28;4117233;28;20049;-65
2022/08/31 05:40:25;;;;;;;5.78;4.00;;;;;;;21.96;61.07;100795.81;4100320;29;20059;-65
2022/08/31 05:42:28;;;;;;;4.70;3.33;;;;;;;21.97;60.91;100796.66;4132283;28;20039;-65
2022/08/31 05:44:34;;;;;;;5.55;3.40;;;;;;;21.95;61.13;100794.06;4116011;28;20584;-65
2022/08/31 05:46:39;;;;;;;5.40;3.47;;;;;;;21.94;61.10;100791.47;4132258;28;20061;-65
2022/08/31 05:48:44;;;;;;;6.95;3.85;;;;;;;21.94;61.22;100797.63;4116266;28;20070;-65
2022/08/31 05:50:51;;;;;;;6.68;3.47;;;;;;;21.92;61.42;100801.25;4115161;28;20046;-65
2022/08/31 05:52:55;;;;;;;5.03;3.35;;;;;;;21.92;61.44;100798.59;4132005;28;20042;-65
2022/08/31 05:54:58;;;;;;;5.20;3.83;;;;;;;21.89;61.74;100801.28;4115617;28;20039;-65
2022/08/31 05:57:02;;;;;;;6.00;3.53;;;;;;;21.88;61.80;100792.50;4130508;28;20141;-65
2022/08/31 05:59:05;;;;;;;6.45;3.63;;;;;;;21.91;61.65;100791.56;4131988;28;20042;-65
2022/08/31 06:01:13;;;;;;;5.40;3.95;;;;;;;21.95;61.46;100804.66;4099824;29;20043;-65
2022/08/31 06:03:39;;;;;;;7.07;3.85;;;;;;;21.86;61.62;100804.03;4123669;28;20134;-65
2022/08/31 06:05:44;;;;;;;6.60;4.13;;;;;;;21.90;61.39;100803.03;4099724;29;20171;-65
2022/08/31 06:07:47;;;;;;;6.70;4.03;;;;;;;21.84;61.78;100806.72;4116008;28;20057;-65
2022/08/31 06:09:51;;;;;;;4.13;3.63;;;;;;;21.84;61.71;100808.50;4114660;28;20043;-65
2022/08/31 06:11:54;;;;;;;5.93;3.80;;;;;;;21.87;61.63;100806.63;4114616;28;20414;-65
2022/08/31 06:14:00;;;;;;;6.43;4.10;;;;;;;21.90;61.38;100800.41;4115163;28;20145;-65
2022/08/31 06:16:03;;;;;;;5.22;4.07;;;;;;;21.94;60.71;100813.50;4115667;28;20050;-65
2022/08/31 06:18:06;;;;;;;4.78;3.78;;;;;;;21.95;60.83;100809.94;4115539;28;20075;-65
2022/08/31 06:20:10;;;;;;;7.40;4.25;;;;;;;21.96;60.86;100819.63;4115621;28;20043;-65
2022/08/31 06:22:22;;;;;;;6.50;4.65;;;;;;;21.95;61.07;100823.19;4099341;28;20047;-65
2022/08/31 06:24:26;;;;;;;6.13;3.58;;;;;;;21.93;61.55;100825.03;4114275;28;20074;-65
2022/08/31 06:26:30;;;;;;;5.53;4.10;;;;;;;21.92;62.24;100822.41;4115640;28;20047;-65
2022/08/31 06:28:35;;;;;;;7.18;4.78;;;;;;;21.87;62.38;100817.22;4115340;28;20046;-65
2022/08/31 06:30:39;;;;;;;10.75;4.65;;;;;;;21.87;62.00;100826.94;4131508;28;20176;-65
2022/08/31 06:32:57;;;;;;;8.73;5.05;;;;;;;21.87;61.49;100827.81;4124339;28;20049;-65
2022/08/31 06:35:09;;;;;;;8.40;5.20;;;;;;;21.86;61.09;100836.69;4114969;28;20050;-65
2022/08/31 06:37:38;;;;;;;8.02;4.93;;;;;;;21.82;60.90;100832.38;4115533;28;20043;-65
2022/08/31 06:40:17;;;;;;;10.40;5.30;;;;;;;21.75;60.84;100833.44;4114140;28;20126;-65
2022/08/31 06:42:40;;;;;;;10.70;5.93;;;;;;;21.77;60.65;100836.91;4116218;28;20117;-65
2022/08/31 06:44:59;;;;;;;8.90;5.32;;;;;;;21.91;60.44;100834.75;4114913;28;20074;-65
2022/08/31 06:47:13;;;;;;;11.10;5.50;;;;;;;22.00;60.22;100835.44;4099195;29;20043;-65
2022/08/31 06:49:17;;;;;;;6.17;4.53;;;;;;;21.98;60.56;100843.41;4115240;28;20484;-65
2022/08/31 06:51:20;;;;;;;9.82;5.57;;;;;;;21.99;60.73;100836.34;4115276;28;20066;-65
2022/08/31 06:53:25;;;;;;;9.02;4.70;;;;;;;22.04;60.91;100839.75;4113394;28;20038;-65
2022/08/31 06:55:48;;;;;;;8.80;4.78;;;;;;;21.88;62.29;100842.78;4112195;28;20116;-65
2022/08/31 06:58:10;;;;;;;8.32;5.07;;;;;;;21.86;62.62;100843.72;4116287;28;20065;-65
2022/08/31 07:00:32;;;;;;;7.78;5.20;;;;;;;21.91;62.64;100844.50;4116172;28;20042;-65
2022/08/31 07:02:43;;;;;;;11.40;5.13;;;;;;;21.93;62.96;100848.84;4115135;28;20117;-65
2022/08/31 07:04:55;;;;;;;7.90;5.63;;;;;;;21.99;62.89;100841.63;4130580;28;20100;-65
2022/08/31 07:06:58;;;;;;;10.07;5.10;;;;;;;22.06;63.03;100848.50;4129446;28;20135;-65
2022/08/31 07:09:06;;;;;;;10.43;5.32;;;;;;;22.10;63.27;100842.22;4114949;28;20134;-65
2022/08/31 07:11:14;;;;;;;10.48;6.35;;;;;;;22.08;63.01;100852.00;4130938;28;20046;-64
2022/08/31 07:13:17;;;;;;;13.45;7.20;;;;;;;22.00;63.74;100860.13;4114444;28;20416;-65
2022/08/31 07:15:20;;;;;;;17.63;8.07;;;;;;;21.94;62.84;100863.78;4130776;28;20039;-65
2022/08/31 07:17:23;;;;;;;18.52;8.32;;;;;;;21.81;63.23;100872.97;4114735;28;20034;-65
2022/08/31 07:19:26;;;;;;;14.85;7.95;;;;;;;21.65;63.14;100879.56;4129898;28;20034;-65
2022/08/31 07:21:32;;;;;;;13.13;9.15;;;;;;;21.58;63.21;100879.72;4112677;28;20129;-65
2022/08/31 07:23:35;;;;;;;11.32;7.30;;;;;;;21.50;62.85;100886.09;4130276;28;20053;-65
2022/08/31 07:25:46;;;;;;;11.07;7.55;;;;;;;21.43;62.45;100880.06;4130924;28;20121;-65
2022/08/31 07:27:54;;;;;;;13.95;7.10;;;;;;;21.34;63.19;100886.44;4130729;28;20042;-64
2022/08/31 07:29:58;;;;;;;12.02;7.30;;;;;;;21.27;62.68;100883.09;4114715;28;20043;-65
2022/08/31 07:32:05;;;;;;;12.00;7.07;;;;;;;21.20;63.06;100889.44;4114653;28;20471;-64
2022/08/31 07:34:09;;;;;;;10.75;6.38;;;;;;;21.18;61.98;100891.22;4096015;28;20066;-65
2022/08/31 07:36:23;;;;;;;;;;;;;;;20.99;61.49;100885.47;4112742;28;20463;-65
2022/08/31 07:43:22;;;;;;;10.60;6.72;;;;;;;21.05;64.63;100895.06;4113991;28;20047;-65
2022/08/31 07:45:26;;;;;;;13.27;6.13;;;;;;;21.09;63.24;100904.66;4114330;28;20039;-65
2022/08/31 07:47:45;;;;;;;14.85;7.35;;;;;;;21.14;61.92;100900.13;4114440;28;20094;-65
2022/08/31 07:49:51;;;;;;;10.88;6.07;;;;;;;21.10;62.24;100909.06;4122184;28;20093;-65
2022/08/31 07:52:10;;;;;;;10.85;7.40;;;;;;;21.27;60.46;100917.47;4114136;28;20098;-65
2022/08/31 07:54:34;;;;;;;9.93;6.43;;;;;;;21.04;60.78;100922.38;4130074;28;20074;-65
2022/08/31 07:56:51;;;;;;;8.63;6.70;;;;;;;20.83;61.40;100926.38;4114338;28;20043;-65
2022/08/31 07:58:55;;;;;;;11.00;7.07;;;;;;;20.67;63.05;100925.81;4130461;28;20396;-65
2022/08/31 08:01:01;;;;;;;9.98;7.28;;;;;;;20.67;62.68;100936.38;4114245;28;20102;-65
2022/08/31 08:03:06;;;;;;;10.13;7.20;;;;;;;20.43;63.62;100938.56;4097113;28;20565;-65
2022/08/31 08:05:40;;;;;;;12.30;6.55;;;;;;;20.37;63.67;100934.28;4105326;28;20038;-65
2022/08/31 08:08:10;;;;;;;10.07;6.65;;;;;;;20.09;64.59;100938.31;4114281;28;20094;-65
2022/08/31 08:10:32;;;;;;;8.48;5.93;;;;;;;19.90;65.74;100943.03;4114249;28;20046;-65
2022/08/31 08:12:49;;;;;;;14.40;7.10;;;;;;;20.18;65.98;100938.13;4114085;28;20051;-65
2022/08/31 08:15:10;;;;;;;9.15;5.95;;;;;;;20.06;66.05;100936.59;4114015;28;20421;-65
2022/08/31 08:17:39;;;;;;;10.23;7.25;;;;;;;19.94;67.00;100942.09;4097917;28;20093;-65
2022/08/31 08:19:44;;;;;;;13.80;7.30;;;;;;;19.92;67.71;100949.13;4129123;28;20046;-64
2022/08/31 08:21:47;;;;;;;9.70;7.03;;;;;;;19.80;67.98;100948.47;4114095;28;20543;-64
2022/08/31 08:23:57;;;;;;;8.65;5.72;;;;;;;19.73;68.16;100952.06;4129901;28;20138;-64
2022/08/31 08:26:19;;;;;;;8.40;5.45;;;;;;;19.76;68.29;100957.28;4115238;28;20445;-63
2022/08/31 08:28:43;;;;;;;8.57;6.30;;;;;;;19.58;68.04;100955.81;4115120;28;20070;-64
2022/08/31 08:30:53;;;;;;;8.65;5.05;;;;;;;19.42;69.34;100963.09;4114082;28;20047;-63
2022/08/31 08:33:00;;;;;;;8.38;5.35;;;;;;;19.47;69.06;100963.88;4112876;28;20141;-64
2022/08/31 08:35:04;;;;;;;10.15;5.78;;;;;;;19.39;69.51;100971.03;4113545;28;20564;-63
2022/08/31 08:37:07;;;;;;;9.23;4.95;;;;;;;19.34;69.91;100972.84;4114007;28;20042;-64
2022/08/31 08:39:11;;;;;;;11.95;6.32;;;;;;;19.35;71.80;100978.09;4113996;28;20039;-64
2022/08/31 08:41:22;;;;;;;10.93;5.72;;;;;;;19.52;69.38;100974.34;4108922;28;20047;-64
2022/08/31 08:43:29;;;;;;;8.50;5.47;;;;;;;19.51;69.57;100972.63;4113674;28;20306;-63
2022/08/31 08:45:35;;;;;;;8.18;5.28;;;;;;;19.48;69.71;100973.53;4114733;28;20047;-64
2022/08/31 08:47:39;;;;;;;8.68;5.45;;;;;;;19.56;69.62;100973.41;4114304;28;20035;-64
2022/08/31 08:49:48;;;;;;;7.22;4.57;;;;;;;19.58;68.72;100968.13;4125040;28;20499;-64
2022/08/31 08:52:00;;;;;;;7.97;4.13;;;;;;;19.39;68.30;100968.41;4115435;28;20090;-64
2022/08/31 08:54:10;;;;;;;7.88;4.07;;;;;;;19.51;67.75;100962.06;4115071;28;20122;-63
2022/08/31 08:56:14;;;;;;;6.03;4.10;;;;;;;19.39;69.15;100964.88;4104874;28;20429;-63
2022/08/31 08:58:35;;;;;;;4.97;3.90;;;;;;;19.39;68.27;100957.84;4115317;28;20067;-64
2022/08/31 09:00:45;;;;;;;6.35;3.85;;;;;;;19.38;68.75;100965.75;4099186;28;20142;-64
2022/08/31 09:02:54;;;;;;;7.13;3.70;;;;;;;19.36;68.50;100963.16;4115196;28;20054;-63
2022/08/31 09:05:29;;;;;;;6.82;3.67;;;;;;;19.23;68.93;100966.84;4114821;28;20050;-63
2022/08/31 09:08:09;;;;;;;6.82;3.53;;;;;;;19.12;69.16;100975.78;4116779;28;20051;-63
2022/08/31 09:10:20;;;;;;;7.68;4.63;;;;;;;19.12;69.22;100978.41;4115013;28;20062;-63
2022/08/31 09:12:30;;;;;;;7.18;4.20;;;;;;;19.14;70.24;100976.66;4129183;28;20531;-63
2022/08/31 09:14:48;;;;;;;8.32;4.63;;;;;;;19.14;69.95;100989.81;4132435;28;20042;-63
2022/08/31 09:17:04;;;;;;;6.50;4.50;;;;;;;19.11;70.76;100983.69;4116538;28;20043;-63
2022/08/31 09:19:11;;;;;;;6.00;3.85;;;;;;;19.20;70.63;100988.84;4132726;28;20499;-63
2022/08/31 09:21:20;;;;;;;5.55;3.70;;;;;;;19.23;70.31;100993.22;4116791;28;20158;-63
2022/08/31 09:23:26;;;;;;;4.55;3.15;;;;;;;19.28;69.74;100991.41;4116225;28;20121;-62
2022/08/31 09:25:37;;;;;;;5.80;3.65;;;;;;;19.26;69.72;100987.91;4131429;28;20046;-63
2022/08/31 09:27:56;;;;;;;7.47;4.43;;;;;;;19.27;69.44;100989.66;4100671;29;20047;-63
2022/08/31 09:30:01;;;;;;;6.78;3.55;;;;;;;19.21;69.74;100987.97;4100668;29;20126;-63
2022/08/31 09:32:08;;;;;;;5.25;3.08;;;;;;;19.17;70.44;100979.22;4102253;28;20538;-63
2022/08/31 09:34:27;;;;;;;6.75;3.47;;;;;;;19.22;71.48;100991.50;4117078;28;20500;-63
2022/08/31 09:36:39;;;;;;;8.45;4.20;;;;;;;19.27;70.62;100984.38;4117394;28;20125;-63
2022/08/31 09:38:45;;;;;;;9.98;4.97;;;;;;;19.30;70.92;100990.50;4114859;28;20035;-63
2022/08/31 09:40:51;;;;;;;10.55;5.10;;;;;;;19.32;70.83;100978.16;4116393;28;20580;-63
2022/08/31 09:43:05;;;;;;;8.85;5.55;;;;;;;19.28;70.69;100976.44;4117230;28;20063;-63
2022/08/31 09:45:17;;;;;;;11.00;5.53;;;;;;;19.22;71.43;100991.50;4115344;28;20047;-63
2022/08/31 09:47:50;;;;;;;11.75;5.32;;;;;;;19.32;70.42;100979.94;4117488;28;20038;-63
2022/08/31 09:49:55;;;;;;;9.23;6.03;;;;;;;19.24;71.15;100987.06;4100448;28;20070;-63
2022/08/31 09:52:13;;;;;;;;;;;;;;;19.05;72.30;100984.66;4116800;28;20058;-63
2022/08/31 09:56:54;;;;;;;9.68;6.65;;;;;;;19.26;71.24;100979.97;4114850;28;20047;-63
2022/08/31 09:59:00;;;;;;;10.10;6.05;;;;;;;19.25;71.78;100983.53;4131815;28;20046;-63
2022/08/31 10:01:12;;;;;;;11.07;6.57;;;;;;;19.28;71.54;100973.81;4116259;28;20117;-63
2022/08/31 10:03:21;;;;;;;7.63;5.57;;;;;;;19.34;72.14;100970.22;4113370;28;20043;-63
2022/08/31 10:05:31;;;;;;;8.32;6.60;;;;;;;19.40;71.79;100967.50;4116850;28;20044;-63
2022/08/31 10:07:43;;;;;;;12.55;7.53;;;;;;;19.45;71.89;100973.59;4117239;28;20054;-63